Conklin, Canada
Current Conditions -  °F | °C
As of 10:00 PM on Thursday 30 Oct 2014 (Local Time) from CWHN Reporting Station
Overcast Overcast  
Wind Chill: 16°   Ceiling: 900
Heat Index: 28°   Visibility: 9mi
Dew Point: 25°   Wind: 18mph
Humidity: 86%   Direction: 170°S
Pressure: 30.12"   Gusts: NA
Location:  55.63°N, 111.08°W
Report Text: CWHN 310400Z AUTO 17016KT 9SM OVC009 M02/M04 A3012 RMK SLP235
Loading
Personal Weather Stations






























Interactive Weather Map
Tropical Storm Tracking
New forecast layout! Learn more

10-Day Weather Forecast

Advertisements
Track Severe Weather on mobile